KCSV/CSV METAR and TAF weather

Enter ICAO airport designator
Station Type Date Time Source
KCSV METAR 2018/01/19 22:53 UTC NOAA

KCSV 192253Z AUTO 19003KT 10SM CLR 05/M12 A3017 RMK AO2 SLP230 T00501117


Station Type Date Time Source
KCSV Decoded METAR 2018/01/19 22:53 UTC NOAA

CROSSVILLE MEMORIAL AIRPORT , TN, United States (KCSV) 35-57N 85-05W 570M
Jan 19, 2018 - 05:53 PM EST / 2018.01.19 2253 UTC
Wind: from the S (190 degrees) at 3 MPH (3 KT):0
Visibility: 10 mile(s):0
Sky conditions: clear
Temperature: 41.0 F (5.0 C)
Dew Point: 10.9 F (-11.7 C)
Relative Humidity: 28%
Pressure (altimeter): 30.17 in. Hg (1021 hPa)
ob: KCSV 192253Z AUTO 19003KT 10SM CLR 05/M12 A3017 RMK AO2 SLP230 T00501117
cycle: 23

Station Type Date Time Source
KCSV TAF 2018/01/19 18:22 UTC NOAA

TAF KCSV 191720Z 1918/2018 20007KT P6SM SKC
FM201400 20007KT P6SM BKN035


Example: see airport list